Time;durP1;ratioP1;P1;durP2;ratioP2;P2;SDS_P1;SDS_P2;PMS_P1;PMS_P2;Temp;Humidity;BMP_temperature;BMP_pressure;BME280_temperature;BME280_humidity;BME280_pressure;Samples;Min_cycle;Max_cycle;Signal;HPM_P1;HPM_P2
2022/05/03 00:02:07;;;;;;;2.50;2.20;;;21.40;36.30;;;;;;5121510;28;20024;-39
2022/05/03 00:04:58;;;;;;;2.90;2.35;;;21.30;36.30;;;;;;5100064;28;20039;-39
2022/05/03 00:07:28;;;;;;;3.85;2.38;;;21.40;36.40;;;;;;5124296;28;20016;-42
2022/05/03 00:10:04;;;;;;;;;;;21.30;36.40;;;;;;5124352;28;20087;-41
2022/05/03 00:13:01;;;;;;;3.03;2.22;;;21.30;36.40;;;;;;5124475;28;19934;-42
2022/05/03 00:15:27;;;;;;;2.63;2.08;;;21.30;36.40;;;;;;5124124;28;20126;-42
2022/05/03 00:17:54;;;;;;;2.80;2.50;;;21.40;36.40;;;;;;5125526;28;20037;-43
2022/05/03 00:20:20;;;;;;;2.92;2.40;;;21.30;36.40;;;;;;5125781;28;20019;-43
2022/05/03 00:22:46;;;;;;;3.35;2.30;;;21.30;36.50;;;;;;5125272;28;20048;-40
2022/05/03 00:25:12;;;;;;;3.53;2.45;;;21.30;36.50;;;;;;5124044;28;20012;-40
2022/05/03 00:27:41;;;;;;;2.47;2.28;;;21.30;36.50;;;;;;5123888;28;20011;-41
2022/05/03 00:30:08;;;;;;;2.70;2.30;;;21.30;36.50;;;;;;5123092;28;20485;-43
2022/05/03 00:32:34;;;;;;;2.50;2.30;;;21.30;36.50;;;;;;5123390;28;20019;-42
2022/05/03 00:35:00;;;;;;;2.70;2.20;;;21.30;36.50;;;;;;5123299;28;20064;-44
2022/05/03 00:37:26;;;;;;;4.22;2.72;;;21.30;36.60;;;;;;5121784;28;20465;-44
2022/05/03 00:39:52;;;;;;;3.05;2.75;;;21.30;36.60;;;;;;5124287;28;20019;-39
2022/05/03 00:42:39;;;;;;;4.65;2.63;;;21.30;36.60;;;;;;5123820;28;20024;-39
2022/05/03 00:45:21;;;;;;;3.47;2.30;;;21.30;36.60;;;;;;5091816;28;20110;-44
2022/05/03 00:47:58;;;;;;;2.92;2.28;;;21.30;36.60;;;;;;5122884;28;20016;-41
2022/05/03 00:50:24;;;;;;;2.45;2.25;;;21.30;36.50;;;;;;5123911;28;20012;-42
2022/05/03 00:52:59;;;;;;;3.63;2.60;;;21.20;36.50;;;;;;5125232;28;20055;-42
2022/05/03 00:55:35;;;;;;;2.53;2.17;;;21.30;37.10;;;;;;5123790;28;20020;-44
2022/05/03 00:58:20;;;;;;;3.63;2.10;;;21.30;36.60;;;;;;5123067;28;20015;-44
2022/05/03 01:00:54;;;;;;;2.78;2.35;;;21.20;36.60;;;;;;5122663;28;20020;-42
2022/05/03 01:03:29;;;;;;;3.17;2.50;;;21.20;36.60;;;;;;5122606;28;20551;-41
2022/05/03 01:06:01;;;;;;;3.65;2.72;;;21.20;36.60;;;;;;5124254;28;20028;-40
2022/05/03 01:08:56;;;;;;;4.50;2.70;;;21.30;36.70;;;;;;5123341;28;20019;-42
2022/05/03 01:11:30;;;;;;;3.42;2.28;;;21.20;36.60;;;;;;5120957;28;20035;-42
2022/05/03 01:14:20;;;;;;;2.78;2.50;;;21.30;36.60;;;;;;5124746;28;20012;-42
2022/05/03 01:16:57;;;;;;;3.83;2.70;;;21.20;36.60;;;;;;5115235;28;20431;-43
2022/05/03 01:19:34;;;;;;;3.05;2.53;;;21.20;36.60;;;;;;5124180;27;20020;-43
2022/05/03 01:22:37;;;;;;;2.80;2.50;;;21.20;36.60;;;;;;5124191;28;20079;-41
2022/05/03 01:25:22;;;;;;;3.85;2.55;;;21.20;36.60;;;;;;5123181;28;20484;-43
2022/05/03 01:28:43;;;;;;;3.20;2.50;;;21.20;36.60;;;;;;5124641;28;20498;-40
2022/05/03 01:31:10;;;;;;;3.47;2.67;;;21.20;36.60;;;;;;5061084;28;20025;-42
2022/05/03 01:33:44;;;;;;;3.35;2.60;;;21.20;36.70;;;;;;5060205;28;20483;-44
2022/05/03 01:36:10;;;;;;;2.72;2.47;;;21.20;36.60;;;;;;5057589;28;20036;-40
2022/05/03 01:38:47;;;;;;;3.25;2.40;;;21.20;36.60;;;;;;5040418;28;20025;-42
2022/05/03 01:41:40;;;;;;;3.40;2.55;;;21.20;36.60;;;;;;5057331;28;20025;-45
2022/05/03 01:44:32;;;;;;;2.83;2.50;;;21.10;36.60;;;;;;5058407;28;20075;-42
2022/05/03 01:47:08;;;;;;;3.05;2.28;;;21.10;36.60;;;;;;5058035;28;20013;-44
2022/05/03 01:52:50;;;;;;;3.17;2.63;;;21.10;36.60;;;;;;5045380;28;20059;-43
2022/05/03 01:55:30;;;;;;;3.90;2.60;;;21.10;36.60;;;;;;5057335;28;20120;-41
2022/05/03 01:58:48;;;;;;;3.85;2.50;;;21.10;36.60;;;;;;5056774;28;20527;-39
2022/05/03 02:01:53;;;;;;;2.80;2.50;;;21.10;36.60;;;;;;5000508;28;20030;-45
2022/05/03 02:04:25;;;;;;;3.42;2.70;;;21.10;36.60;;;;;;5030107;28;20505;-39
2022/05/03 02:06:54;;;;;;;4.30;2.60;;;21.20;36.60;;;;;;5082243;28;20027;-42
2022/05/03 02:09:25;;;;;;;3.50;2.67;;;21.10;36.60;;;;;;5100045;28;20024;-43
2022/05/03 02:12:13;;;;;;;4.00;2.40;;;21.10;37.00;;;;;;5083596;28;20028;-43
2022/05/03 02:14:55;;;;;;;4.55;2.90;;;21.10;36.60;;;;;;5099886;28;20111;-42
2022/05/03 02:17:44;;;;;;;3.92;2.40;;;21.10;36.60;;;;;;5101659;28;20028;-45
2022/05/03 02:20:32;;;;;;;3.28;2.60;;;21.10;36.60;;;;;;5101392;28;20035;-44
2022/05/03 02:23:28;;;;;;;3.72;2.42;;;21.10;36.60;;;;;;5087163;28;20063;-43
2022/05/03 02:26:00;;;;;;;2.95;2.60;;;21.10;36.60;;;;;;5100706;28;20055;-46
2022/05/03 02:28:29;;;;;;;4.57;2.47;;;21.10;36.50;;;;;;5100758;28;20571;-39
2022/05/03 02:30:56;;;;;;;3.70;2.78;;;21.10;36.50;;;;;;5104722;28;20076;-45
2022/05/03 02:33:55;;;;;;;2.88;2.33;;;21.10;36.50;;;;;;5104519;28;20069;-42
2022/05/03 02:36:23;;;;;;;3.60;2.60;;;21.10;36.60;;;;;;5122579;28;20020;-41
2022/05/03 02:38:52;;;;;;;3.63;3.05;;;21.10;36.50;;;;;;5124451;28;20022;-42
2022/05/03 02:41:19;;;;;;;3.42;2.97;;;21.00;36.40;;;;;;5121901;28;20028;-41
2022/05/03 02:43:46;;;;;;;3.63;2.70;;;21.10;36.50;;;;;;5123351;28;20012;-42
2022/05/03 02:46:39;;;;;;;4.57;2.90;;;21.00;36.50;;;;;;5123698;28;20016;-39
2022/05/03 02:49:11;;;;;;;3.17;2.58;;;21.10;36.60;;;;;;5125141;28;20054;-43
2022/05/03 02:52:23;;;;;;;3.63;2.70;;;21.00;36.50;;;;;;5123642;28;20098;-42
2022/05/03 02:55:04;;;;;;;3.50;2.83;;;21.00;36.60;;;;;;5099450;28;20046;-40
2022/05/03 02:58:07;;;;;;;3.97;2.40;;;21.00;36.50;;;;;;5127559;28;20031;-40
2022/05/03 03:04:21;;;;;;;4.80;2.80;;;21.00;36.50;;;;;;5128291;28;20046;-38
2022/05/03 03:06:46;;;;;;;4.25;2.90;;;21.00;36.50;;;;;;5124631;28;20037;-39
2022/05/03 03:09:17;;;;;;;3.95;2.80;;;21.00;36.50;;;;;;5126046;28;20008;-39
2022/05/03 03:12:02;;;;;;;4.38;2.75;;;21.00;36.50;;;;;;5125380;28;20012;-40
2022/05/03 03:14:48;;;;;;;4.05;2.80;;;20.90;36.50;;;;;;5124645;28;20065;-40
2022/05/03 03:17:19;;;;;;;4.63;2.65;;;21.00;36.60;;;;;;5124765;28;20015;-41
2022/05/03 03:19:48;;;;;;;3.25;2.65;;;21.00;36.50;;;;;;5125716;28;20015;-39
2022/05/03 03:22:36;;;;;;;2.75;2.50;;;21.00;36.50;;;;;;5124273;28;20051;-40
2022/05/03 03:25:02;;;;;;;4.05;3.00;;;21.00;36.60;;;;;;5125420;28;20015;-41
2022/05/03 03:27:28;;;;;;;6.03;2.88;;;21.00;36.60;;;;;;5125082;28;20023;-39
2022/05/03 03:29:56;;;;;;;2.97;2.47;;;20.90;36.50;;;;;;5107676;28;20019;-42
2022/05/03 03:32:22;;;;;;;4.03;3.10;;;20.90;36.50;;;;;;5124871;28;20097;-40
2022/05/03 03:34:48;;;;;;;4.35;2.65;;;20.90;36.60;;;;;;5125106;28;20047;-41
2022/05/03 03:37:14;;;;;;;3.58;2.97;;;20.90;36.50;;;;;;5122781;28;20459;-41
2022/05/03 03:39:40;;;;;;;3.88;2.60;;;20.90;36.60;;;;;;5124619;28;20012;-42
2022/05/03 03:42:07;;;;;;;3.53;2.70;;;20.90;36.60;;;;;;5123884;28;20141;-43
2022/05/03 03:44:32;;;;;;;4.57;2.78;;;20.90;36.50;;;;;;5126376;28;20020;-41
2022/05/03 03:47:00;;;;;;;5.68;3.30;;;20.90;37.10;;;;;;5124803;28;20088;-41
2022/05/03 03:49:26;;;;;;;5.70;3.30;;;20.90;36.50;;;;;;5124210;28;20008;-40
2022/05/03 03:51:52;;;;;;;6.13;3.00;;;20.90;36.50;;;;;;5124585;28;20011;-40
2022/05/03 03:54:20;;;;;;;4.28;3.08;;;20.90;36.50;;;;;;5124370;28;20012;-40
2022/05/03 03:56:47;;;;;;;4.10;2.85;;;20.90;36.60;;;;;;5125121;28;20523;-40
2022/05/03 03:59:14;;;;;;;3.40;2.72;;;20.80;36.50;;;;;;5124201;28;20027;-40
2022/05/03 04:01:40;;;;;;;4.50;2.50;;;20.80;36.60;;;;;;5124479;28;20024;-41
2022/05/03 04:04:08;;;;;;;3.90;2.90;;;20.90;36.60;;;;;;5125107;28;20008;-44
2022/05/03 04:06:35;;;;;;;4.93;2.80;;;20.90;36.50;;;;;;5123493;28;20034;-42
2022/05/03 04:09:01;;;;;;;4.05;2.88;;;20.90;36.50;;;;;;5123894;28;20015;-42
2022/05/03 04:11:27;;;;;;;3.65;2.90;;;20.90;36.50;;;;;;5124519;28;20110;-43
2022/05/03 04:13:53;;;;;;;3.55;2.80;;;20.90;36.50;;;;;;5126992;28;20007;-41
2022/05/03 04:16:19;;;;;;;4.22;2.95;;;20.80;36.50;;;;;;5125554;28;20008;-41
2022/05/03 04:18:45;;;;;;;4.05;2.80;;;20.80;36.50;;;;;;5125535;28;20016;-41
2022/05/03 04:21:14;;;;;;;4.63;3.03;;;20.80;36.50;;;;;;5125445;28;20052;-42
2022/05/03 04:23:41;;;;;;;3.97;2.70;;;20.80;36.50;;;;;;5126680;28;20018;-42
2022/05/03 04:26:09;;;;;;;5.22;3.20;;;20.80;36.50;;;;;;5126352;28;20008;-42
2022/05/03 04:28:35;;;;;;;3.88;2.90;;;20.90;36.50;;;;;;5125739;28;20012;-42
2022/05/03 04:31:01;;;;;;;3.83;2.80;;;20.80;36.50;;;;;;5124014;28;20015;-42
2022/05/03 04:33:27;;;;;;;3.38;3.00;;;20.80;36.40;;;;;;5125599;28;20076;-41
2022/05/03 04:35:54;;;;;;;3.95;2.80;;;20.80;36.40;;;;;;5123513;28;20099;-40
2022/05/03 04:38:20;;;;;;;6.28;3.22;;;20.80;36.40;;;;;;5125141;28;20030;-42
2022/05/03 04:40:46;;;;;;;3.25;2.90;;;20.90;36.40;;;;;;5125141;28;20541;-39
2022/05/03 04:43:13;;;;;;;4.93;3.20;;;20.90;36.30;;;;;;5123589;28;20012;-41
2022/05/03 04:45:39;;;;;;;3.78;3.03;;;21.00;36.30;;;;;;5125330;28;20004;-41
2022/05/03 04:48:05;;;;;;;3.42;2.85;;;21.00;36.20;;;;;;5124386;28;20030;-41
2022/05/03 04:50:31;;;;;;;4.03;3.08;;;21.00;36.10;;;;;;5123964;28;20012;-42
2022/05/03 04:52:57;;;;;;;3.78;3.10;;;21.10;35.90;;;;;;5124086;28;20030;-46
2022/05/03 04:55:23;;;;;;;3.53;2.45;;;21.10;35.80;;;;;;5125223;28;20008;-42
2022/05/03 04:57:49;;;;;;;4.75;2.80;;;21.20;35.80;;;;;;5125128;28;20039;-41
2022/05/03 05:00:16;;;;;;;2.63;2.40;;;21.40;35.60;;;;;;5122878;28;20026;-43
2022/05/03 05:02:42;;;;;;;3.55;2.55;;;21.60;35.20;;;;;;5124939;28;20019;-44
2022/05/03 05:05:09;;;;;;;3.40;2.58;;;21.80;34.80;;;;;;5123710;28;20023;-41
2022/05/03 05:07:35;;;;;;;2.92;2.15;;;22.00;34.50;;;;;;5121308;28;20019;-42
2022/05/03 05:12:45;;;;;;;2.65;2.20;;;22.40;33.80;;;;;;5123188;28;20065;-41
2022/05/03 05:15:11;;;;;;;2.50;2.30;;;22.50;33.40;;;;;;5123227;28;20023;-42
2022/05/03 05:17:36;;;;;;;2.50;2.20;;;22.70;33.20;;;;;;5122743;28;20071;-38
2022/05/03 05:20:03;;;;;;;3.58;2.15;;;22.90;32.80;;;;;;5120739;28;20028;-39
2022/05/03 05:22:29;;;;;;;3.28;2.13;;;23.10;32.50;;;;;;5121562;28;20052;-43
2022/05/03 05:24:55;;;;;;;3.20;2.17;;;23.30;32.20;;;;;;5121224;28;20390;-41
2022/05/03 05:27:21;;;;;;;3.15;2.20;;;23.50;31.80;;;;;;5122002;28;20020;-38
2022/05/03 05:29:48;;;;;;;2.95;2.22;;;23.70;31.60;;;;;;5122861;28;20012;-39
2022/05/03 05:32:14;;;;;;;3.20;2.20;;;23.90;31.30;;;;;;5122420;28;20015;-37
2022/05/03 05:34:40;;;;;;;2.33;1.80;;;24.10;31.00;;;;;;5121071;28;20086;-40
2022/05/03 05:37:05;;;;;;;2.08;1.88;;;24.30;30.60;;;;;;5119408;28;20054;-37
2022/05/03 05:39:32;;;;;;;2.63;2.10;;;24.50;30.30;;;;;;5120264;28;20019;-38
2022/05/03 05:41:59;;;;;;;4.57;2.08;;;24.70;30.00;;;;;;5119349;28;20028;-39
2022/05/03 05:44:30;;;;;;;2.35;2.10;;;24.90;29.90;;;;;;5119387;28;20016;-37
2022/05/03 05:46:56;;;;;;;4.05;2.10;;;25.10;29.60;;;;;;5101105;28;20047;-37
2022/05/03 05:49:22;;;;;;;2.90;2.00;;;25.30;29.40;;;;;;5120017;28;20024;-37
2022/05/03 05:51:48;;;;;;;3.08;2.20;;;25.40;29.30;;;;;;5117890;28;20449;-39
2022/05/03 05:54:16;;;;;;;2.85;2.00;;;25.60;29.20;;;;;;5118296;28;20015;-37
2022/05/03 05:56:42;;;;;;;2.45;1.83;;;25.70;29.10;;;;;;5115597;28;20064;-38
2022/05/03 05:59:08;;;;;;;3.60;2.03;;;25.70;29.00;;;;;;5115549;28;20020;-37
2022/05/03 06:01:40;;;;;;;2.47;1.90;;;25.80;28.90;;;;;;5116132;28;20043;-38
2022/05/03 06:04:06;;;;;;;2.92;2.10;;;25.90;29.30;;;;;;5115925;28;20019;-39
2022/05/03 06:06:33;;;;;;;2.80;2.00;;;26.00;28.80;;;;;;5113341;28;20020;-39
2022/05/03 06:08:59;;;;;;;2.50;1.95;;;26.10;28.70;;;;;;5113767;28;20008;-38
2022/05/03 06:11:27;;;;;;;3.13;1.80;;;26.20;28.60;;;;;;5112642;28;20012;-38
2022/05/03 06:13:52;;;;;;;2.55;1.92;;;26.30;28.60;;;;;;5113718;28;20016;-38
2022/05/03 06:16:19;;;;;;;2.33;1.95;;;26.40;28.40;;;;;;5111460;28;20135;-37
2022/05/03 06:18:44;;;;;;;2.83;1.58;;;26.60;28.40;;;;;;5094473;28;20100;-37
2022/05/03 06:21:11;;;;;;;3.13;1.90;;;26.70;28.30;;;;;;5109640;28;20082;-36
2022/05/03 06:23:37;;;;;;;2.22;1.48;;;26.80;28.20;;;;;;5111340;28;20024;-37
2022/05/03 06:26:05;;;;;;;3.85;1.90;;;26.80;28.20;;;;;;5111799;28;20020;-38
2022/05/03 06:28:32;;;;;;;3.00;1.83;;;26.90;28.20;;;;;;5096732;28;20015;-38
2022/05/03 06:30:58;;;;;;;3.65;1.65;;;27.00;28.10;;;;;;5114769;28;20797;-40
2022/05/03 06:33:24;;;;;;;2.88;1.65;;;27.10;28.10;;;;;;5113350;28;20019;-39
2022/05/03 06:35:50;;;;;;;2.15;1.73;;;27.10;28.00;;;;;;5114899;28;20011;-39
2022/05/03 06:38:16;;;;;;;3.10;1.70;;;27.20;28.00;;;;;;5116121;28;20028;-39
2022/05/03 06:40:44;;;;;;;2.70;1.50;;;27.20;27.90;;;;;;5114760;28;20545;-39
2022/05/03 06:43:10;;;;;;;2.60;1.60;;;27.30;27.90;;;;;;5115455;28;20105;-38
2022/05/03 06:45:36;;;;;;;3.55;1.70;;;27.40;27.90;;;;;;5115204;28;20031;-39
2022/05/03 06:48:06;;;;;;;3.67;1.80;;;27.40;27.80;;;;;;5116005;28;20474;-40
2022/05/03 06:50:32;;;;;;;6.43;2.15;;;27.50;27.70;;;;;;5099508;28;20019;-38
2022/05/03 06:52:58;;;;;;;2.72;1.73;;;27.60;27.70;;;;;;5117067;28;20031;-38
2022/05/03 06:55:24;;;;;;;2.58;1.88;;;27.70;28.10;;;;;;5116029;28;20012;-40
2022/05/03 06:57:49;;;;;;;3.55;1.80;;;27.80;27.60;;;;;;5115946;28;20019;-37
2022/05/03 07:00:16;;;;;;;6.15;1.63;;;27.80;27.60;;;;;;5097880;28;20038;-39
2022/05/03 07:02:42;;;;;;;3.67;1.88;;;27.90;27.60;;;;;;5115145;28;20416;-40
2022/05/03 07:05:08;;;;;;;3.75;2.05;;;28.00;27.50;;;;;;5115659;28;20466;-42
2022/05/03 07:07:34;;;;;;;3.63;1.80;;;28.00;27.40;;;;;;5116335;28;20095;-39
2022/05/03 07:10:00;;;;;;;4.93;2.00;;;28.10;27.40;;;;;;5114400;28;20513;-38
2022/05/03 07:12:27;;;;;;;3.88;1.60;;;28.20;27.40;;;;;;5114833;28;20012;-39
2022/05/03 07:15:00;;;;;;;3.88;1.70;;;28.20;27.30;;;;;;5114187;28;20068;-38
2022/05/03 07:22:57;;;;;;;5.32;1.60;;;28.30;27.20;;;;;;5115298;28;20140;-39
2022/05/03 07:25:22;;;;;;;3.53;1.50;;;28.40;27.20;;;;;;5115862;28;20012;-39
2022/05/03 07:27:48;;;;;;;4.10;1.50;;;28.40;27.10;;;;;;5115861;28;20366;-39
2022/05/03 07:30:14;;;;;;;4.63;1.60;;;28.50;27.10;;;;;;5119185;28;20388;-38
2022/05/03 07:32:43;;;;;;;5.15;1.48;;;28.50;27.00;;;;;;5119050;28;20039;-39
2022/05/03 07:35:09;;;;;;;4.10;1.80;;;28.60;27.10;;;;;;5119971;28;20102;-42
2022/05/03 07:37:36;;;;;;;3.70;1.50;;;28.60;27.00;;;;;;5118899;28;20016;-38
2022/05/03 07:40:03;;;;;;;4.95;1.63;;;28.60;27.00;;;;;;5119187;28;20020;-39
2022/05/03 07:42:31;;;;;;;4.65;2.05;;;28.70;27.00;;;;;;5119694;28;20015;-38
2022/05/03 07:44:57;;;;;;;3.25;1.70;;;28.70;27.00;;;;;;5118343;28;20027;-38
2022/05/03 07:47:25;;;;;;;4.63;1.58;;;28.80;27.00;;;;;;5119445;27;20016;-39
2022/05/03 07:49:51;;;;;;;5.75;1.85;;;28.70;26.90;;;;;;5119993;28;20042;-39
2022/05/03 07:52:17;;;;;;;4.65;1.73;;;28.80;26.90;;;;;;5120049;28;20020;-40
2022/05/03 07:54:43;;;;;;;2.92;1.70;;;28.80;26.90;;;;;;5121502;28;20015;-42
2022/05/03 07:57:09;;;;;;;4.80;1.45;;;28.70;26.90;;;;;;5119710;28;20026;-43
2022/05/03 07:59:35;;;;;;;4.88;1.80;;;28.60;26.90;;;;;;5120636;28;20023;-42
2022/05/03 08:02:01;;;;;;;3.97;1.80;;;28.70;26.90;;;;;;5119151;28;20023;-41
2022/05/03 08:04:27;;;;;;;5.63;1.98;;;28.60;26.90;;;;;;5117197;28;20015;-41
2022/05/03 08:06:53;;;;;;;3.33;1.70;;;28.70;26.90;;;;;;5115981;28;20031;-40
2022/05/03 08:09:19;;;;;;;7.15;1.88;;;28.60;26.80;;;;;;5098361;28;20119;-41
2022/05/03 08:11:44;;;;;;;4.40;1.85;;;28.60;26.90;;;;;;5116341;28;20015;-41
2022/05/03 08:14:11;;;;;;;3.83;2.10;;;28.60;26.90;;;;;;5117079;28;20032;-42
2022/05/03 08:16:38;;;;;;;4.88;2.10;;;28.60;26.90;;;;;;5115211;28;20022;-41
2022/05/03 08:19:04;;;;;;;7.72;2.00;;;28.50;26.80;;;;;;5118236;28;20080;-41
2022/05/03 08:21:32;;;;;;;4.30;2.05;;;28.50;26.80;;;;;;5119340;28;20075;-40
2022/05/03 08:23:59;;;;;;;3.15;1.95;;;28.50;26.90;;;;;;5119671;28;20007;-42
2022/05/03 08:26:25;;;;;;;4.90;2.05;;;28.50;26.80;;;;;;5120569;28;20012;-42
2022/05/03 08:28:50;;;;;;;4.10;2.13;;;28.50;26.90;;;;;;5121050;27;20030;-44
2022/05/03 08:31:16;;;;;;;8.20;2.30;;;28.50;26.90;;;;;;5120032;28;20043;-41
2022/05/03 08:33:44;;;;;;;5.78;1.90;;;28.50;26.90;;;;;;5119283;28;20031;-41
2022/05/03 08:36:12;;;;;;;4.75;2.10;;;28.50;26.90;;;;;;5121280;28;20034;-42
2022/05/03 08:44:08;;;;;;;4.22;2.03;;;28.40;27.10;;;;;;5105648;28;20097;-44
2022/05/03 08:46:33;;;;;;;3.75;2.05;;;28.40;26.90;;;;;;5122452;28;20098;-46
2022/05/03 08:49:03;;;;;;;3.88;1.92;;;28.40;26.90;;;;;;5105798;28;20047;-48
2022/05/03 08:51:31;;;;;;;5.70;1.88;;;28.40;26.90;;;;;;5123775;28;20033;-46
2022/05/03 08:53:57;;;;;;;6.25;1.90;;;28.40;26.90;;;;;;5124545;28;20106;-50
2022/05/03 08:56:24;;;;;;;4.72;1.95;;;28.40;26.90;;;;;;5122384;28;20470;-45
2022/05/03 08:58:49;;;;;;;4.15;1.95;;;28.40;26.90;;;;;;5104316;28;20026;-44
2022/05/03 09:01:15;;;;;;;3.58;2.00;;;28.40;26.90;;;;;;5103599;28;20121;-43
2022/05/03 09:03:41;;;;;;;2.85;2.00;;;28.30;26.80;;;;;;5122033;28;20028;-43
2022/05/03 09:06:08;;;;;;;4.82;1.90;;;28.30;26.80;;;;;;5123108;28;20047;-43
2022/05/03 09:08:34;;;;;;;7.22;2.10;;;28.40;26.90;;;;;;5121574;28;20027;-46
2022/05/03 09:11:11;;;;;;;4.97;1.98;;;28.40;26.80;;;;;;5121153;28;20453;-41
2022/05/03 09:13:36;;;;;;;6.78;1.80;;;28.40;26.80;;;;;;5119669;28;20043;-44
2022/05/03 09:16:15;;;;;;;3.63;1.95;;;28.30;26.80;;;;;;5119067;28;20068;-41
2022/05/03 09:18:46;;;;;;;4.28;1.88;;;28.40;26.80;;;;;;5120417;28;20023;-43
2022/05/03 09:24:11;;;;;;;4.57;1.85;;;28.40;26.80;;;;;;5120493;28;20034;-42
2022/05/03 09:26:37;;;;;;;2.83;1.90;;;28.40;26.80;;;;;;5120171;28;20036;-42
2022/05/03 09:29:10;;;;;;;4.65;1.85;;;28.40;26.80;;;;;;5120178;28;20095;-42
2022/05/03 09:31:48;;;;;;;6.20;1.80;;;28.40;26.80;;;;;;5119879;28;20037;-46
2022/05/03 09:34:19;;;;;;;4.15;1.60;;;28.40;26.70;;;;;;5119875;28;20024;-41
2022/05/03 09:36:51;;;;;;;5.20;1.75;;;28.40;26.80;;;;;;5118524;28;20482;-41
2022/05/03 09:39:24;;;;;;;5.50;1.70;;;28.40;26.80;;;;;;5118460;28;20076;-41
2022/05/03 09:42:06;;;;;;;7.20;1.70;;;28.30;26.80;;;;;;5118064;28;20024;-46
2022/05/03 09:44:36;;;;;;;5.70;1.73;;;28.30;26.80;;;;;;5118428;28;20069;-40
2022/05/03 09:47:09;;;;;;;4.18;2.10;;;28.30;26.80;;;;;;5117787;28;20461;-42
2022/05/03 09:49:36;;;;;;;5.57;1.80;;;28.30;26.80;;;;;;5117303;28;20039;-41
2022/05/03 09:52:06;;;;;;;10.63;1.95;;;28.30;26.90;;;;;;5116879;28;20008;-44
2022/05/03 09:54:52;;;;;;;;;;;28.30;26.90;;;;;;5117455;28;20023;-46
2022/05/03 09:57:26;;;;;;;7.47;1.75;;;28.30;26.90;;;;;;5117806;28;19906;-42
2022/05/03 09:59:55;;;;;;;9.52;1.95;;;28.20;27.00;;;;;;5117235;28;20465;-43
2022/05/03 10:02:22;;;;;;;6.63;1.60;;;28.20;27.00;;;;;;5116269;28;20027;-42
2022/05/03 10:04:49;;;;;;;9.73;2.17;;;28.20;27.00;;;;;;5115521;28;20113;-40
2022/05/03 10:07:14;;;;;;;8.18;2.25;;;28.20;27.00;;;;;;5117036;28;20035;-41
2022/05/03 10:09:41;;;;;;;8.30;1.80;;;28.20;27.00;;;;;;5117308;28;20027;-42
2022/05/03 10:12:08;;;;;;;6.15;2.22;;;28.10;27.20;;;;;;5117103;28;20016;-45
2022/05/03 10:14:37;;;;;;;4.97;2.00;;;28.00;27.20;;;;;;5115871;28;20427;-43
2022/05/03 10:22:35;;;;;;;8.43;1.70;;;27.90;27.40;;;;;;5118913;28;20072;-45
2022/05/03 10:25:04;;;;;;;10.68;2.10;;;27.70;27.50;;;;;;5101232;28;20011;-43
2022/05/03 10:27:30;;;;;;;7.25;2.28;;;27.60;27.70;;;;;;5116393;28;20035;-40
2022/05/03 10:30:16;;;;;;;9.75;1.98;;;27.40;27.80;;;;;;5117415;28;20015;-39
2022/05/03 10:32:42;;;;;;;7.20;2.00;;;27.30;27.90;;;;;;5118615;28;20016;-38
2022/05/03 10:35:33;;;;;;;4.38;1.92;;;27.30;28.10;;;;;;5117822;28;20073;-37
2022/05/03 10:37:59;;;;;;;2.80;1.70;;;27.20;28.20;;;;;;5113865;28;20015;-38
2022/05/03 10:40:39;;;;;;;5.55;2.15;;;27.10;28.20;;;;;;5118215;28;20027;-38
2022/05/03 10:43:09;;;;;;;5.32;1.80;;;27.10;28.30;;;;;;5116484;28;20088;-38
2022/05/03 10:45:52;;;;;;;6.97;2.20;;;27.00;28.20;;;;;;5119371;28;20013;-37
2022/05/03 10:48:28;;;;;;;9.38;2.10;;;26.90;28.30;;;;;;5117762;28;20111;-39
2022/05/03 10:51:00;;;;;;;6.50;2.00;;;26.80;28.40;;;;;;5118503;28;20023;-38
2022/05/03 10:53:27;;;;;;;5.03;1.80;;;26.80;28.50;;;;;;5116836;28;20008;-39
2022/05/03 10:56:12;;;;;;;6.18;2.00;;;26.80;28.30;;;;;;5120220;28;20080;-41
2022/05/03 10:58:41;;;;;;;7.10;2.20;;;26.80;28.40;;;;;;5118306;28;20089;-39
2022/05/03 11:01:11;;;;;;;5.77;1.70;;;26.80;28.50;;;;;;5114467;28;20090;-39
2022/05/03 11:03:38;;;;;;;4.25;1.98;;;26.80;28.60;;;;;;5115556;28;20031;-40
2022/05/03 11:06:19;;;;;;;3.03;1.67;;;26.80;28.50;;;;;;5119134;28;20414;-41
2022/05/03 11:09:08;;;;;;;6.40;1.90;;;26.70;28.50;;;;;;5118960;28;20382;-39
2022/05/03 11:11:42;;;;;;;7.85;2.00;;;26.60;28.60;;;;;;5118687;28;20012;-39
2022/05/03 11:14:22;;;;;;;5.38;1.80;;;26.60;28.60;;;;;;5118885;28;20028;-39
2022/05/03 11:17:08;;;;;;;3.28;1.60;;;26.60;28.60;;;;;;5119827;28;20095;-39
2022/05/03 11:19:53;;;;;;;7.32;1.77;;;26.60;28.70;;;;;;5120117;27;20087;-39
2022/05/03 11:22:30;;;;;;;4.68;1.85;;;26.60;28.70;;;;;;5117910;28;20036;-39
2022/05/03 11:24:57;;;;;;;4.78;2.20;;;26.60;28.70;;;;;;5120146;28;20012;-44
2022/05/03 11:27:23;;;;;;;5.65;2.15;;;26.60;28.70;;;;;;5101275;28;20012;-40
2022/05/03 11:29:50;;;;;;;3.65;1.52;;;26.60;28.70;;;;;;5119277;28;20019;-40
2022/05/03 11:32:17;;;;;;;4.88;1.80;;;26.60;29.20;;;;;;5119767;28;20026;-40
2022/05/03 11:34:44;;;;;;;3.45;1.70;;;26.60;28.70;;;;;;5115973;28;20053;-40
2022/05/03 11:37:10;;;;;;;6.00;1.70;;;26.60;28.80;;;;;;5115420;28;20043;-40
2022/05/03 11:39:40;;;;;;;4.10;2.00;;;26.50;28.70;;;;;;5115991;28;20012;-38
2022/05/03 11:42:09;;;;;;;3.53;1.60;;;26.50;28.80;;;;;;5116416;28;20035;-39
2022/05/03 11:44:40;;;;;;;2.53;1.60;;;26.40;28.80;;;;;;5118466;28;20497;-40
2022/05/03 11:47:05;;;;;;;5.60;1.70;;;26.40;28.80;;;;;;5118143;28;20019;-38
2022/05/03 11:49:32;;;;;;;5.43;1.73;;;26.40;28.90;;;;;;5117217;28;20397;-41
2022/05/03 11:57:57;;;;;;;4.25;1.85;;;26.20;29.10;;;;;;5118194;28;20050;-40
2022/05/03 12:00:23;;;;;;;3.90;1.83;;;26.10;29.20;;;;;;5116606;28;20080;-39
2022/05/03 12:02:49;;;;;;;3.55;1.83;;;26.00;29.30;;;;;;5116971;27;20076;-38
2022/05/03 12:05:19;;;;;;;4.28;1.83;;;26.00;29.40;;;;;;5117380;28;20428;-39
2022/05/03 12:07:48;;;;;;;3.75;1.80;;;25.90;29.40;;;;;;5117531;28;20078;-39
2022/05/03 12:10:34;;;;;;;3.05;1.60;;;25.80;29.50;;;;;;5117192;27;20020;-39
2022/05/03 12:13:23;;;;;;;3.28;1.40;;;25.80;29.60;;;;;;5117292;28;20015;-39
2022/05/03 12:16:15;;;;;;;4.35;1.73;;;25.70;29.60;;;;;;5116856;28;20050;-40
2022/05/03 12:18:43;;;;;;;4.30;2.00;;;25.70;29.60;;;;;;5117946;28;20028;-46
2022/05/03 12:21:21;;;;;;;3.75;1.77;;;25.70;29.60;;;;;;5118533;28;20405;-39
2022/05/03 12:23:57;;;;;;;3.70;1.73;;;25.80;29.60;;;;;;5117320;28;20010;-38
2022/05/03 12:26:37;;;;;;;5.50;1.70;;;25.70;29.60;;;;;;5117439;28;20062;-46
2022/05/03 12:29:03;;;;;;;3.58;1.70;;;25.70;29.60;;;;;;5098567;28;20039;-39
2022/05/03 12:31:39;;;;;;;3.25;1.85;;;25.80;29.60;;;;;;5115538;28;20020;-39
2022/05/03 12:34:07;;;;;;;4.25;1.85;;;25.80;29.50;;;;;;5116239;28;20016;-45
2022/05/03 12:36:44;;;;;;;2.47;1.90;;;25.80;29.60;;;;;;5117802;28;20016;-38
2022/05/03 12:39:15;;;;;;;4.32;2.20;;;25.80;29.60;;;;;;5116675;28;20024;-40
2022/05/03 12:41:41;;;;;;;8.25;2.08;;;25.80;29.60;;;;;;5118372;28;20046;-47
2022/05/03 12:44:09;;;;;;;8.18;1.90;;;25.70;29.60;;;;;;5117487;28;20458;-43
2022/05/03 12:46:35;;;;;;;3.80;1.75;;;25.70;29.80;;;;;;5117326;28;20015;-42
2022/05/03 12:49:04;;;;;;;5.25;1.70;;;25.70;29.70;;;;;;5116148;28;20046;-40
2022/05/03 12:51:29;;;;;;;6.97;2.00;;;25.70;29.70;;;;;;5116536;28;20024;-42
2022/05/03 12:53:55;;;;;;;8.35;1.88;;;25.70;29.80;;;;;;5116762;28;20516;-43
2022/05/03 12:59:06;;;;;;;6.47;2.00;;;25.60;29.90;;;;;;5116970;28;20081;-41
2022/05/03 13:01:32;;;;;;;6.60;1.60;;;25.60;30.10;;;;;;5116485;28;20046;-40
2022/05/03 13:03:59;;;;;;;7.50;1.95;;;25.60;30.00;;;;;;5115398;28;20011;-41
2022/05/03 13:06:24;;;;;;;6.38;1.80;;;25.50;30.00;;;;;;5117860;28;20438;-41
2022/05/03 13:08:52;;;;;;;8.52;1.90;;;25.50;30.20;;;;;;5118184;28;20049;-38
2022/05/03 13:11:17;;;;;;;10.23;2.00;;;25.40;30.30;;;;;;5116963;28;20049;-38
2022/05/03 13:13:43;;;;;;;8.05;1.80;;;25.40;30.40;;;;;;5116733;28;20049;-37
2022/05/03 13:16:10;;;;;;;7.80;2.10;;;25.40;30.50;;;;;;5116022;28;20103;-41
2022/05/03 13:18:36;;;;;;;5.03;2.10;;;25.30;30.50;;;;;;5115848;28;20007;-37
2022/05/03 13:21:02;;;;;;;7.43;2.53;;;25.30;30.60;;;;;;5115908;28;20047;-38
2022/05/03 13:23:28;;;;;;;4.80;2.10;;;25.30;30.60;;;;;;5115411;28;20114;-38
2022/05/03 13:25:54;;;;;;;7.93;2.00;;;25.30;30.70;;;;;;5116426;28;20008;-39
2022/05/03 13:28:20;;;;;;;4.15;1.80;;;25.20;30.70;;;;;;5117404;28;20030;-41
2022/05/03 13:30:46;;;;;;;6.55;2.22;;;25.20;30.80;;;;;;5116453;28;20466;-39
2022/05/03 13:33:12;;;;;;;4.25;1.80;;;25.20;30.80;;;;;;5117577;28;20031;-44
2022/05/03 13:41:06;;;;;;;4.97;1.75;;;25.10;31.00;;;;;;5119375;28;20030;-41
2022/05/03 13:43:32;;;;;;;8.27;1.90;;;25.10;31.00;;;;;;5119151;28;20047;-39
2022/05/03 13:45:58;;;;;;;5.35;1.98;;;25.10;31.10;;;;;;5121132;28;20014;-43
2022/05/03 13:48:25;;;;;;;7.35;2.15;;;25.10;31.10;;;;;;5121035;28;20008;-41
2022/05/03 13:50:51;;;;;;;4.20;2.30;;;25.10;31.30;;;;;;5120974;27;20015;-41